Aérodrome :
LOGIN :

S'inscrire | Disclaimer

   EN    FR    IT 

 










Légende :    VFR   VFR Marginal   IFR   IFR Intensif   IFR Très Intensif
Visi : 
Plafond : 
>= 8 km
>= 3000ft
5 à 8 km
1000 à 3000 ft
1500m à 5 km
500 à 1000 ft
800 à 1500m
200 à 500 ft
< 800m
< 200 ft
Symboles :   Orages  Brouillard  Fortes neiges  Fortes précipitations  Vent > 20 kt
SIGMETs :   Divers  Orages  Givrage  Turbulence  Onde Orograph.  Cendres Volcan.







- Altitude de l'aérodrome : 479 ft
- Code IATA : DOL
- Voir les cartes d'approche


LFRG - Deauville

DERNIER METAR :
  • 151030Z AUTO 16006KT 120V200 9999 FEW018 19/14 Q1010 NOSIG

METARs EXPIRÉS :
  • 151000Z AUTO 16007KT 100V200 9999 BKN015 BKN120 18/14 Q1010 TEMPO BKN009
  • 150930Z AUTO 17010KT 130V200 9999 FEW013 BKN120 BKN200 17/14 Q1009 TEMPO BKN009
  • 150900Z AUTO 17006KT 120V200 9999 BKN010 16/14 Q1009 NOSIG
  • 150830Z AUTO 17009KT 130V200 9999 BKN009 BKN013 16/14 Q1009 NOSIG
  • 150800Z AUTO 17006KT 140V200 9999 OVC009 15/14 Q1008 BECMG BKN025

TAF TAF LFRG
Valide du 15 à 09h jusqu'au 15 à 18h UTC


150800Z 1509/1518 16010KT 9999 BKN020
TEMPO 1509/1511 BKN009
BECMG 1510/1512 18005KT
ATIS : +33 2 31 65 65 36
Pas de NOTAMs connus pour ce terrain.



MET'MAP, la Météo Aéronautique d'un coup d'oeil ! - Copyright ORBIFLY Décembre 2007 - Disclaimer

ORBIFLY MET'MAP TEAM :

Programmation & Développement : Alexandra Zaïnal
Conception & Développement : Baudouin d'Aumeries
Co-Programmation & Développement : Marc-Olivier Méhu
Soutien technique & logistique : Manuel Goepfert

Contact : metmap@orbifly.com




SOURCES & CREDITS :

   NOAA